Time;durP1;ratioP1;P1;durP2;ratioP2;P2;SDS_P1;SDS_P2;PMS_P1;PMS_P2;Temp;Humidity;BMP_temperature;BMP_pressure;BME280_temperature;BME280_humidity;BME280_pressure;Samples;Min_cycle;Max_cycle;Signal;HPM_P1;HPM_P2
2022/07/22 00:00:03;;;;;;;6.33;5.77;;;;;;;;;;4969656;28;20183;-75
2022/07/22 00:02:28;;;;;;;6.70;6.07;;;;;;;;;;4953305;28;20177;-75
2022/07/22 00:04:53;;;;;;;6.93;6.33;;;;;;;;;;4953803;28;20457;-75
2022/07/22 00:07:19;;;;;;;7.80;6.77;;;;;;;;;;4960174;28;20239;-75
2022/07/22 00:09:44;;;;;;;6.57;6.07;;;;;;;;;;4953138;28;20183;-75
2022/07/22 00:12:09;;;;;;;6.93;6.33;;;;;;;;;;4968191;28;20198;-75
2022/07/22 00:14:35;;;;;;;7.13;6.43;;;;;;;;;;4971333;28;20199;-75
2022/07/22 00:17:00;;;;;;;7.07;6.40;;;;;;;;;;4954421;28;20180;-75
2022/07/22 00:19:26;;;;;;;7.57;6.87;;;;;;;;;;4972401;28;20181;-75
2022/07/22 00:21:51;;;;;;;7.73;7.13;;;;;;;;;;4974643;28;20247;-75
2022/07/22 00:24:17;;;;;;;7.50;6.80;;;;;;;;;;4970529;28;20173;-75
2022/07/22 00:26:43;;;;;;;6.57;6.07;;;;;;;;;;4970161;28;20478;-75
2022/07/22 00:29:08;;;;;;;7.20;6.50;;;;;;;;;;4979572;28;20259;-74
2022/07/22 00:31:33;;;;;;;7.40;6.73;;;;;;;;;;4978254;28;20184;-75
2022/07/22 00:34:00;;;;;;;7.50;6.73;;;;;;;;;;4970237;28;20280;-75
2022/07/22 00:36:26;;;;;;;8.50;6.87;;;;;;;;;;4981415;28;20180;-75
2022/07/22 00:38:51;;;;;;;6.80;6.20;;;;;;;;;;4954408;28;20181;-75
2022/07/22 00:41:16;;;;;;;8.50;7.70;;;;;;;;;;4954292;28;20194;-75
2022/07/22 00:43:49;;;;;;;7.73;6.93;;;;;;;;;;4955801;28;20182;-75
2022/07/22 00:46:14;;;;;;;7.30;6.60;;;;;;;;;;4972819;28;20192;-75
2022/07/22 00:48:39;;;;;;;7.57;6.87;;;;;;;;;;4956128;28;20197;-75
2022/07/22 00:51:04;;;;;;;6.77;6.20;;;;;;;;;;4965481;28;20189;-75
2022/07/22 00:53:30;;;;;;;13.03;7.37;;;;;;;;;;4967823;28;20239;-75
2022/07/22 00:55:55;;;;;;;7.80;6.67;;;;;;;;;;4957167;28;20257;-75
2022/07/22 00:58:21;;;;;;;9.50;7.40;;;;;;;;;;4954178;28;20214;-75
2022/07/22 01:00:47;;;;;;;8.50;6.43;;;;;;;;;;4954373;28;20212;-75
2022/07/22 01:03:12;;;;;;;7.50;6.90;;;;;;;;;;4952111;28;20225;-75
2022/07/22 01:05:37;;;;;;;7.77;7.07;;;;;;;;;;4973974;28;20179;-75
2022/07/22 01:08:05;;;;;;;9.13;7.60;;;;;;;;;;4950952;28;20200;-74
2022/07/22 01:10:30;;;;;;;8.07;7.40;;;;;;;;;;4965380;28;20515;-75
2022/07/22 01:12:55;;;;;;;8.50;7.70;;;;;;;;;;4955382;28;20194;-75
2022/07/22 01:15:20;;;;;;;7.67;6.63;;;;;;;;;;4971568;28;20196;-75
2022/07/22 01:17:46;;;;;;;8.67;7.50;;;;;;;;;;4959164;28;20179;-75
2022/07/22 01:20:11;;;;;;;8.30;7.50;;;;;;;;;;4957097;28;20222;-75
2022/07/22 01:22:36;;;;;;;8.60;7.70;;;;;;;;;;4959947;28;20264;-75
2022/07/22 01:25:02;;;;;;;8.60;7.33;;;;;;;;;;4972617;28;20182;-75
2022/07/22 01:27:29;;;;;;;9.00;8.07;;;;;;;;;;4973050;28;20208;-75
2022/07/22 01:29:54;;;;;;;8.43;7.40;;;;;;;;;;4982774;28;20185;-74
2022/07/22 01:32:20;;;;;;;10.40;8.63;;;;;;;;;;4972953;28;20186;-75
2022/07/22 01:34:45;;;;;;;8.80;7.90;;;;;;;;;;4978836;28;20239;-74
2022/07/22 01:37:10;;;;;;;9.53;8.70;;;;;;;;;;4972894;28;20189;-75
2022/07/22 01:39:36;;;;;;;8.30;7.50;;;;;;;;;;4973337;28;20180;-75
2022/07/22 01:42:01;;;;;;;9.50;7.83;;;;;;;;;;4961467;28;20265;-75
2022/07/22 01:44:26;;;;;;;8.50;7.80;;;;;;;;;;4969441;28;20199;-75
2022/07/22 01:46:51;;;;;;;8.40;7.60;;;;;;;;;;4956115;28;20249;-75
2022/07/22 01:49:16;;;;;;;7.37;6.67;;;;;;;;;;4969219;28;20200;-75
2022/07/22 01:51:42;;;;;;;8.53;7.63;;;;;;;;;;4954482;28;20237;-75
2022/07/22 01:54:07;;;;;;;7.97;7.27;;;;;;;;;;4993825;28;20247;-74
2022/07/22 01:56:32;;;;;;;7.77;7.10;;;;;;;;;;4995211;28;20203;-75
2022/07/22 01:58:57;;;;;;;7.63;6.93;;;;;;;;;;4992247;28;20192;-75
2022/07/22 02:01:24;;;;;;;12.07;7.10;;;;;;;;;;4989436;28;20185;-75
2022/07/22 02:03:49;;;;;;;8.73;7.30;;;;;;;;;;4988626;28;20193;-75
2022/07/22 02:06:14;;;;;;;11.00;7.97;;;;;;;;;;4977778;28;20193;-75
2022/07/22 02:08:40;;;;;;;8.07;6.73;;;;;;;;;;4971678;28;20190;-74
2022/07/22 02:11:05;;;;;;;7.40;6.70;;;;;;;;;;4974214;28;20186;-75
2022/07/22 02:13:33;;;;;;;8.03;6.43;;;;;;;;;;4971638;28;20214;-75
2022/07/22 02:15:58;;;;;;;7.70;6.90;;;;;;;;;;4992596;28;20249;-75
2022/07/22 02:18:25;;;;;;;7.57;6.87;;;;;;;;;;4988479;28;20266;-75
2022/07/22 02:20:50;;;;;;;6.90;6.30;;;;;;;;;;4989000;28;20190;-74
2022/07/22 02:23:15;;;;;;;12.37;7.13;;;;;;;;;;4981821;28;20182;-75
2022/07/22 02:25:41;;;;;;;8.57;7.67;;;;;;;;;;4975320;28;20258;-75
2022/07/22 02:28:06;;;;;;;8.00;7.20;;;;;;;;;;4973501;28;20214;-74
2022/07/22 02:30:32;;;;;;;8.67;7.77;;;;;;;;;;4980551;28;20183;-75
2022/07/22 02:32:58;;;;;;;8.20;7.40;;;;;;;;;;4976957;28;20182;-75
2022/07/22 02:35:23;;;;;;;8.43;7.27;;;;;;;;;;4974311;28;20182;-75
2022/07/22 02:37:48;;;;;;;7.43;6.73;;;;;;;;;;4978992;28;20182;-74
2022/07/22 02:40:14;;;;;;;8.23;7.37;;;;;;;;;;4982016;28;20180;-75
2022/07/22 02:42:39;;;;;;;8.50;7.60;;;;;;;;;;4989326;28;21120;-75
2022/07/22 02:45:06;;;;;;;7.73;6.60;;;;;;;;;;4991378;28;20192;-75
2022/07/22 02:47:31;;;;;;;7.87;7.17;;;;;;;;;;4991588;28;20185;-75
2022/07/22 02:49:57;;;;;;;8.00;6.63;;;;;;;;;;4974906;28;20180;-75
2022/07/22 02:52:22;;;;;;;8.43;7.60;;;;;;;;;;4988290;28;20181;-75
2022/07/22 02:54:47;;;;;;;8.27;7.47;;;;;;;;;;4982433;28;20248;-75
2022/07/22 02:57:12;;;;;;;10.27;7.73;;;;;;;;;;4972350;28;20212;-75
2022/07/22 02:59:38;;;;;;;9.93;8.97;;;;;;;;;;4955198;28;20186;-75
2022/07/22 03:02:03;;;;;;;9.30;8.43;;;;;;;;;;4954217;28;20235;-74
2022/07/22 03:04:28;;;;;;;9.93;8.33;;;;;;;;;;4978102;28;20189;-75
2022/07/22 03:06:54;;;;;;;9.00;8.07;;;;;;;;;;4955757;28;20192;-75
2022/07/22 03:09:19;;;;;;;10.47;8.83;;;;;;;;;;4953194;28;20503;-75
2022/07/22 03:11:44;;;;;;;9.50;8.60;;;;;;;;;;4971433;28;20204;-74
2022/07/22 03:14:10;;;;;;;9.90;8.10;;;;;;;;;;4954465;28;20204;-74
2022/07/22 03:16:35;;;;;;;10.73;9.10;;;;;;;;;;4956973;28;20271;-75
2022/07/22 03:19:00;;;;;;;8.83;8.03;;;;;;;;;;4953321;28;20211;-75
2022/07/22 03:21:25;;;;;;;10.97;9.00;;;;;;;;;;4953278;28;20188;-74
2022/07/22 03:23:53;;;;;;;9.93;8.40;;;;;;;;;;4957184;28;20188;-75
2022/07/22 03:26:19;;;;;;;11.00;9.93;;;;;;;;;;4968653;28;20191;-74
2022/07/22 03:28:44;;;;;;;11.90;9.57;;;;;;;;;;4977932;28;20199;-75
2022/07/22 03:31:09;;;;;;;9.70;8.67;;;;;;;;;;4972209;28;20251;-75
2022/07/22 03:33:34;;;;;;;9.30;8.40;;;;;;;;;;4977426;28;20215;-75
2022/07/22 03:35:59;;;;;;;9.53;8.63;;;;;;;;;;4973497;28;20187;-75
2022/07/22 03:38:24;;;;;;;11.87;10.13;;;;;;;;;;4979517;28;20191;-75
2022/07/22 03:40:50;;;;;;;10.13;9.13;;;;;;;;;;4959074;28;20194;-74
2022/07/22 03:43:15;;;;;;;10.57;9.10;;;;;;;;;;4971232;28;20188;-75
2022/07/22 03:45:40;;;;;;;11.70;9.73;;;;;;;;;;4955722;28;20183;-75
2022/07/22 03:48:05;;;;;;;16.50;10.37;;;;;;;;;;4954267;28;20213;-75
2022/07/22 03:50:31;;;;;;;11.00;10.00;;;;;;;;;;4974758;28;20183;-75
2022/07/22 03:52:56;;;;;;;10.53;9.53;;;;;;;;;;4973750;28;20235;-74
2022/07/22 03:55:21;;;;;;;10.77;9.67;;;;;;;;;;4974293;28;20202;-75
2022/07/22 03:57:46;;;;;;;11.50;10.43;;;;;;;;;;4990451;28;20194;-74
2022/07/22 04:00:11;;;;;;;13.60;9.70;;;;;;;;;;4968480;28;20180;-74
2022/07/22 04:02:37;;;;;;;11.67;10.50;;;;;;;;;;4990884;28;20174;-75
2022/07/22 04:05:02;;;;;;;12.57;10.23;;;;;;;;;;4990324;28;20212;-75
2022/07/22 04:07:27;;;;;;;11.33;10.13;;;;;;;;;;4985350;28;20209;-74
2022/07/22 04:10:04;;;;;;;11.77;9.93;;;;;;;;;;4985256;28;20235;-75
2022/07/22 04:12:29;;;;;;;10.70;9.70;;;;;;;;;;4988765;28;20183;-75
2022/07/22 04:14:54;;;;;;;15.73;10.63;;;;;;;;;;4974914;28;20202;-74
2022/07/22 04:17:20;;;;;;;10.30;9.30;;;;;;;;;;4989947;28;20183;-75
2022/07/22 04:19:45;;;;;;;10.93;9.87;;;;;;;;;;4973290;28;20182;-75
2022/07/22 04:22:10;;;;;;;12.87;9.43;;;;;;;;;;4976337;28;20186;-75
2022/07/22 04:24:35;;;;;;;11.27;10.27;;;;;;;;;;4991305;28;20261;-75
2022/07/22 04:27:01;;;;;;;12.10;9.60;;;;;;;;;;4985449;28;20254;-74
2022/07/22 04:29:26;;;;;;;11.63;10.43;;;;;;;;;;4990395;28;20174;-75
2022/07/22 04:31:51;;;;;;;12.97;11.53;;;;;;;;;;4975481;28;20206;-75
2022/07/22 04:34:16;;;;;;;12.30;11.07;;;;;;;;;;4972413;28;20202;-74
2022/07/22 04:36:41;;;;;;;15.97;12.47;;;;;;;;;;4986790;28;20249;-74
2022/07/22 04:39:06;;;;;;;11.57;10.47;;;;;;;;;;4966910;28;20209;-75
2022/07/22 04:41:32;;;;;;;13.70;11.90;;;;;;;;;;4989647;28;20179;-75
2022/07/22 04:43:57;;;;;;;14.03;12.03;;;;;;;;;;4967476;28;20193;-75
2022/07/22 04:46:22;;;;;;;12.73;11.43;;;;;;;;;;4984337;28;20181;-75
2022/07/22 04:48:48;;;;;;;11.53;10.27;;;;;;;;;;4976814;28;20185;-74
2022/07/22 04:51:13;;;;;;;12.70;11.50;;;;;;;;;;4977143;28;20227;-75
2022/07/22 04:53:38;;;;;;;12.20;9.70;;;;;;;;;;4980478;28;20232;-75
2022/07/22 04:56:03;;;;;;;12.17;11.03;;;;;;;;;;4994766;28;20281;-75
2022/07/22 04:58:29;;;;;;;11.90;10.83;;;;;;;;;;4993696;28;20265;-75
2022/07/22 05:00:54;;;;;;;12.97;10.50;;;;;;;;;;4991575;28;20207;-75
2022/07/22 05:03:19;;;;;;;10.53;9.50;;;;;;;;;;4987578;28;20275;-75
2022/07/22 05:05:45;;;;;;;12.93;11.13;;;;;;;;;;4996247;28;20184;-75
2022/07/22 05:08:11;;;;;;;10.63;9.63;;;;;;;;;;4989763;28;20278;-76
2022/07/22 05:10:36;;;;;;;9.83;8.63;;;;;;;;;;4999579;28;20262;-74
2022/07/22 05:13:01;;;;;;;10.40;9.40;;;;;;;;;;4995918;28;20175;-75
2022/07/22 05:15:26;;;;;;;10.20;9.17;;;;;;;;;;4972632;28;20175;-75
2022/07/22 05:17:51;;;;;;;9.43;8.43;;;;;;;;;;4996867;28;20179;-76
2022/07/22 05:20:17;;;;;;;9.37;8.47;;;;;;;;;;4980813;28;20173;-76
2022/07/22 05:22:42;;;;;;;9.90;8.97;;;;;;;;;;5000745;28;20194;-75
2022/07/22 05:25:08;;;;;;;10.40;9.40;;;;;;;;;;4983591;28;20259;-76
2022/07/22 05:27:33;;;;;;;16.50;12.57;;;;;;;;;;4976316;28;20199;-75
2022/07/22 05:29:58;;;;;;;9.33;8.53;;;;;;;;;;4990668;28;20177;-76
2022/07/22 05:32:25;;;;;;;10.80;9.73;;;;;;;;;;4977105;28;20191;-76
2022/07/22 05:34:51;;;;;;;10.47;9.43;;;;;;;;;;4971259;28;20207;-75
2022/07/22 05:37:16;;;;;;;9.60;8.63;;;;;;;;;;4990862;28;20178;-76
2022/07/22 05:39:42;;;;;;;9.77;8.80;;;;;;;;;;4973478;28;20218;-75
2022/07/22 05:42:07;;;;;;;9.53;8.63;;;;;;;;;;4986177;28;20180;-76
2022/07/22 05:44:32;;;;;;;9.47;8.57;;;;;;;;;;4978594;28;20232;-76
2022/07/22 05:46:58;;;;;;;10.03;8.53;;;;;;;;;;4969197;28;20242;-76
2022/07/22 05:49:25;;;;;;;9.97;9.07;;;;;;;;;;4973468;28;20228;-74
2022/07/22 05:51:50;;;;;;;9.13;8.23;;;;;;;;;;4974020;28;20281;-76
2022/07/22 05:54:15;;;;;;;9.53;8.63;;;;;;;;;;4994109;28;20308;-75
2022/07/22 05:56:40;;;;;;;10.17;9.17;;;;;;;;;;4994881;28;20205;-76
2022/07/22 05:59:05;;;;;;;10.33;9.30;;;;;;;;;;4976861;28;20182;-74
2022/07/22 06:01:31;;;;;;;10.63;9.63;;;;;;;;;;4978962;28;20182;-76
2022/07/22 06:03:56;;;;;;;9.20;8.40;;;;;;;;;;4989923;28;20190;-76
2022/07/22 06:06:21;;;;;;;10.80;9.50;;;;;;;;;;4974796;28;20209;-76
2022/07/22 06:08:46;;;;;;;12.53;9.73;;;;;;;;;;4987400;28;20193;-76
2022/07/22 06:11:12;;;;;;;10.77;8.53;;;;;;;;;;4991725;28;20187;-77
2022/07/22 06:13:37;;;;;;;8.70;8.00;;;;;;;;;;4994032;28;20206;-76
2022/07/22 06:16:03;;;;;;;8.80;7.93;;;;;;;;;;4970982;28;20175;-76
2022/07/22 06:18:28;;;;;;;9.07;8.27;;;;;;;;;;4996284;28;20205;-79
2022/07/22 06:20:53;;;;;;;9.00;8.20;;;;;;;;;;4994892;28;20207;-76
2022/07/22 06:23:18;;;;;;;9.40;8.50;;;;;;;;;;4996517;28;20191;-76
2022/07/22 06:25:44;;;;;;;9.20;8.30;;;;;;;;;;4992233;28;20251;-76
2022/07/22 06:28:09;;;;;;;9.17;8.37;;;;;;;;;;4980576;28;20182;-76
2022/07/22 06:30:35;;;;;;;10.93;8.73;;;;;;;;;;4995987;28;20199;-76
2022/07/22 06:33:00;;;;;;;9.37;8.27;;;;;;;;;;4975760;28;20191;-76
2022/07/22 06:35:25;;;;;;;9.50;8.60;;;;;;;;;;4999024;28;20191;-76
2022/07/22 06:37:51;;;;;;;9.93;8.47;;;;;;;;;;4977808;28;20197;-76
2022/07/22 06:40:16;;;;;;;10.07;9.13;;;;;;;;;;4975934;28;20210;-76
2022/07/22 06:42:41;;;;;;;8.37;7.57;;;;;;;;;;4980133;28;20182;-76
2022/07/22 06:45:07;;;;;;;8.87;8.07;;;;;;;;;;4993508;28;20192;-76
2022/07/22 06:47:35;;;;;;;8.83;8.07;;;;;;;;;;4982302;28;20210;-76
2022/07/22 06:50:00;;;;;;;12.63;8.97;;;;;;;;;;4988428;28;20212;-76
2022/07/22 06:52:28;;;;;;;8.97;8.17;;;;;;;;;;4991578;28;20192;-76
2022/07/22 06:54:53;;;;;;;9.57;8.67;;;;;;;;;;4991924;28;20286;-76
2022/07/22 06:57:18;;;;;;;9.83;8.87;;;;;;;;;;4975228;28;20224;-76
2022/07/22 06:59:43;;;;;;;10.57;9.67;;;;;;;;;;4976852;28;20188;-76
2022/07/22 07:02:09;;;;;;;9.80;8.10;;;;;;;;;;4994405;28;20178;-75
2022/07/22 07:04:34;;;;;;;9.80;8.90;;;;;;;;;;5003473;28;20221;-76
2022/07/22 07:06:59;;;;;;;9.90;8.20;;;;;;;;;;4989976;28;20353;-76
2022/07/22 07:09:24;;;;;;;9.33;8.43;;;;;;;;;;4993530;28;20206;-76
2022/07/22 07:11:49;;;;;;;10.00;9.00;;;;;;;;;;4979536;28;20192;-76
2022/07/22 07:14:18;;;;;;;9.53;8.73;;;;;;;;;;4975596;28;20195;-76
2022/07/22 07:16:43;;;;;;;12.03;9.27;;;;;;;;;;4991844;28;20215;-75
2022/07/22 07:19:08;;;;;;;9.13;8.23;;;;;;;;;;4994313;28;20205;-76
2022/07/22 07:21:33;;;;;;;9.50;8.60;;;;;;;;;;4985784;28;20172;-76
2022/07/22 07:23:58;;;;;;;12.00;10.13;;;;;;;;;;4986283;28;20197;-76
2022/07/22 07:26:23;;;;;;;9.60;8.57;;;;;;;;;;4977287;28;20184;-76
2022/07/22 07:28:49;;;;;;;10.17;9.13;;;;;;;;;;4974004;28;20211;-76
2022/07/22 07:31:14;;;;;;;8.93;8.23;;;;;;;;;;4988547;28;21376;-76
2022/07/22 07:33:39;;;;;;;9.00;8.20;;;;;;;;;;4996441;28;20252;-76
2022/07/22 07:36:04;;;;;;;9.57;8.63;;;;;;;;;;4977503;28;20258;-77
2022/07/22 07:38:30;;;;;;;9.73;8.63;;;;;;;;;;4981155;28;20203;-76
2022/07/22 07:40:55;;;;;;;10.50;8.93;;;;;;;;;;4991248;28;20179;-76
2022/07/22 07:43:20;;;;;;;10.50;9.10;;;;;;;;;;4979017;28;20201;-76
2022/07/22 07:45:45;;;;;;;8.77;7.97;;;;;;;;;;4991599;28;20183;-76
2022/07/22 07:48:11;;;;;;;9.47;8.60;;;;;;;;;;4991808;28;20377;-76
2022/07/22 07:50:36;;;;;;;10.07;8.17;;;;;;;;;;4994244;28;20187;-76
2022/07/22 07:53:01;;;;;;;9.13;8.33;;;;;;;;;;4985831;28;20230;-76
2022/07/22 07:55:27;;;;;;;11.77;9.07;;;;;;;;;;4974461;28;20207;-76
2022/07/22 07:57:52;;;;;;;9.83;8.93;;;;;;;;;;4952134;28;20176;-75
2022/07/22 08:00:22;;;;;;;9.87;8.97;;;;;;;;;;4951721;28;20211;-77
2022/07/22 08:02:47;;;;;;;9.90;9.00;;;;;;;;;;4952307;28;20205;-76
2022/07/22 08:05:13;;;;;;;10.27;9.27;;;;;;;;;;4970501;28;20184;-77
2022/07/22 08:07:38;;;;;;;9.47;8.47;;;;;;;;;;4974057;28;20184;-76
2022/07/22 08:10:05;;;;;;;8.85;8.05;;;;;;;;;;4959061;28;20359;-77
2022/07/22 08:12:30;;;;;;;8.87;7.97;;;;;;;;;;4955143;28;20181;-77
2022/07/22 08:14:56;;;;;;;9.87;8.87;;;;;;;;;;4944604;28;20251;-76
2022/07/22 08:17:21;;;;;;;10.27;8.20;;;;;;;;;;4972180;28;20303;-76
2022/07/22 08:19:47;;;;;;;9.37;8.20;;;;;;;;;;4969437;28;20188;-76
2022/07/22 08:22:12;;;;;;;9.07;8.25;;;;;;;;;;4957138;28;20177;-77
2022/07/22 08:24:37;;;;;;;9.23;8.13;;;;;;;;;;4976867;28;20205;-77
2022/07/22 08:27:02;;;;;;;8.93;7.95;;;;;;;;;;4984945;28;20250;-76
2022/07/22 08:29:28;;;;;;;8.68;7.78;;;;;;;;;;4974662;28;20176;-76
2022/07/22 08:31:53;;;;;;;8.02;7.32;;;;;;;;;;4954434;28;20285;-76
2022/07/22 08:34:18;;;;;;;8.40;7.60;;;;;;;;;;4978719;28;20209;-77
2022/07/22 08:36:43;;;;;;;8.77;7.88;;;;;;;;;;4986447;28;20175;-77
2022/07/22 08:39:08;;;;;;;9.18;8.20;;;;;;;;;;4975148;28;20184;-77
2022/07/22 08:41:35;;;;;;;8.13;7.40;;;;;;;;;;4981503;28;20176;-77
2022/07/22 08:44:01;;;;;;;8.63;7.72;;;;;;;;;;4961279;28;20178;-76
2022/07/22 08:46:26;;;;;;;8.80;7.97;;;;;;;;;;4982584;28;20303;-76
2022/07/22 08:48:52;;;;;;;8.35;7.65;;;;;;;;;;4974845;28;20273;-76
2022/07/22 08:51:19;;;;;;;7.68;6.93;;;;;;;;;;4958253;28;20228;-77
2022/07/22 08:53:45;;;;;;;8.90;8.10;;;;;;;;;;4963198;28;20230;-79
2022/07/22 08:56:11;;;;;;;9.50;8.60;;;;;;;;;;4981232;28;20290;-79
2022/07/22 08:58:37;;;;;;;7.38;6.72;;;;;;;;;;4980136;28;20215;-79
2022/07/22 09:01:07;;;;;;;7.88;7.18;;;;;;;;;;4979996;28;20176;-77
2022/07/22 09:03:32;;;;;;;8.05;7.35;;;;;;;;;;4988725;28;20199;-79
2022/07/22 09:05:58;;;;;;;8.05;7.13;;;;;;;;;;4973973;28;20181;-79
2022/07/22 09:08:23;;;;;;;9.52;7.45;;;;;;;;;;4976325;28;20184;-79
2022/07/22 09:10:49;;;;;;;8.00;7.18;;;;;;;;;;4997630;28;20238;-79
2022/07/22 09:13:15;;;;;;;7.20;6.60;;;;;;;;;;4977556;28;20193;-79
2022/07/22 09:15:47;;;;;;;8.15;7.45;;;;;;;;;;4986756;28;20181;-78
2022/07/22 09:18:13;;;;;;;8.18;7.40;;;;;;;;;;4973924;28;20176;-79
2022/07/22 09:20:38;;;;;;;7.32;6.63;;;;;;;;;;4980712;28;20266;-79
2022/07/22 09:23:13;;;;;;;6.82;6.13;;;;;;;;;;4978317;28;20173;-80
2022/07/22 09:25:39;;;;;;;8.40;7.63;;;;;;;;;;4969786;28;20235;-79
2022/07/22 09:28:04;;;;;;;7.07;6.38;;;;;;;;;;4975273;28;20234;-79
2022/07/22 09:30:30;;;;;;;7.35;6.75;;;;;;;;;;4977874;28;20176;-79
2022/07/22 09:32:56;;;;;;;8.50;7.78;;;;;;;;;;4996352;28;20200;-79
2022/07/22 09:35:22;;;;;;;8.05;7.25;;;;;;;;;;4976859;28;20212;-79
2022/07/22 09:37:55;;;;;;;8.15;6.53;;;;;;;;;;4976465;28;20232;-79
2022/07/22 09:40:21;;;;;;;7.80;7.10;;;;;;;;;;4988387;28;20177;-79
2022/07/22 09:42:53;;;;;;;7.25;6.55;;;;;;;;;;4998257;28;21154;-79
2022/07/22 09:45:19;;;;;;;8.18;7.32;;;;;;;;;;4973025;28;20173;-79
2022/07/22 09:47:44;;;;;;;7.18;6.47;;;;;;;;;;4976363;28;20216;-79
2022/07/22 09:50:16;;;;;;;7.63;6.95;;;;;;;;;;4973417;28;20186;-79
2022/07/22 09:52:42;;;;;;;7.72;7.13;;;;;;;;;;4974889;28;20259;-79
2022/07/22 09:55:08;;;;;;;8.57;7.00;;;;;;;;;;4972632;28;20203;-80
2022/07/22 09:57:33;;;;;;;7.28;6.68;;;;;;;;;;4954138;28;20206;-80
2022/07/22 09:59:58;;;;;;;9.30;6.90;;;;;;;;;;4955074;28;20191;-79
2022/07/22 10:02:24;;;;;;;7.38;6.78;;;;;;;;;;4973004;28;20177;-80
2022/07/22 10:04:49;;;;;;;7.75;7.05;;;;;;;;;;4954532;28;20188;-79
2022/07/22 10:07:15;;;;;;;8.18;7.38;;;;;;;;;;4956808;28;20177;-80
2022/07/22 10:09:43;;;;;;;8.48;7.63;;;;;;;;;;4973763;28;20189;-79
2022/07/22 10:12:08;;;;;;;7.32;6.72;;;;;;;;;;4956719;28;20184;-79
2022/07/22 10:14:34;;;;;;;7.07;6.40;;;;;;;;;;4972271;28;20279;-79
2022/07/22 10:16:59;;;;;;;7.55;6.90;;;;;;;;;;4954294;28;20272;-79
2022/07/22 10:19:24;;;;;;;7.20;6.50;;;;;;;;;;4978049;28;20256;-80
2022/07/22 10:21:49;;;;;;;7.75;6.20;;;;;;;;;;4958825;28;20236;-80
2022/07/22 10:24:19;;;;;;;7.50;6.60;;;;;;;;;;4975582;28;20205;-79
2022/07/22 10:26:57;;;;;;;7.18;6.50;;;;;;;;;;4973275;28;20228;-80
2022/07/22 10:29:26;;;;;;;7.28;6.57;;;;;;;;;;4979012;28;20256;-79
2022/07/22 10:32:12;;;;;;;7.60;6.90;;;;;;;;;;4958267;28;20200;-80
2022/07/22 10:34:37;;;;;;;7.30;6.60;;;;;;;;;;4944462;28;20200;-80
2022/07/22 10:37:02;;;;;;;7.53;6.72;;;;;;;;;;4956015;28;20191;-80
2022/07/22 10:39:27;;;;;;;7.75;7.05;;;;;;;;;;4956407;28;20175;-79
2022/07/22 10:41:53;;;;;;;7.53;6.93;;;;;;;;;;4956059;28;20359;-80
2022/07/22 10:44:37;;;;;;;8.40;6.57;;;;;;;;;;4952929;28;20477;-80
2022/07/22 10:47:02;;;;;;;7.78;6.43;;;;;;;;;;4954853;28;20434;-80
2022/07/22 10:49:27;;;;;;;7.18;6.55;;;;;;;;;;4954761;28;20191;-80
2022/07/22 10:52:08;;;;;;;7.03;6.32;;;;;;;;;;4952709;28;20272;-79
2022/07/22 10:54:33;;;;;;;6.90;6.20;;;;;;;;;;4965164;28;20259;-80
2022/07/22 10:56:59;;;;;;;6.88;6.30;;;;;;;;;;4987376;28;20200;-80
2022/07/22 10:59:25;;;;;;;7.15;6.55;;;;;;;;;;4973989;28;20265;-79
2022/07/22 11:01:51;;;;;;;9.77;6.38;;;;;;;;;;4973053;28;20219;-80
2022/07/22 11:04:17;;;;;;;6.72;6.13;;;;;;;;;;4974921;28;20189;-80
2022/07/22 11:06:43;;;;;;;8.07;7.28;;;;;;;;;;4988951;28;20184;-80
2022/07/22 11:09:10;;;;;;;8.20;6.55;;;;;;;;;;4972154;28;20260;-80
2022/07/22 11:11:38;;;;;;;7.70;6.90;;;;;;;;;;4978700;28;20498;-80
2022/07/22 11:14:03;;;;;;;8.10;6.45;;;;;;;;;;4971616;28;20192;-81
2022/07/22 11:16:29;;;;;;;6.85;6.35;;;;;;;;;;4991175;28;20180;-80
2022/07/22 11:18:58;;;;;;;6.80;6.10;;;;;;;;;;4974049;28;20225;-80
2022/07/22 11:21:27;;;;;;;7.18;6.57;;;;;;;;;;5002769;28;20187;-80
2022/07/22 11:23:53;;;;;;;6.80;6.30;;;;;;;;;;4974835;28;20271;-80
2022/07/22 11:26:39;;;;;;;6.38;5.95;;;;;;;;;;4989500;28;20184;-80
2022/07/22 11:29:04;;;;;;;7.75;7.07;;;;;;;;;;4998504;28;20196;-80
2022/07/22 11:31:29;;;;;;;7.32;6.72;;;;;;;;;;4996367;28;20304;-80
2022/07/22 11:34:09;;;;;;;7.38;6.88;;;;;;;;;;4973469;28;20286;-80
2022/07/22 11:36:35;;;;;;;6.95;6.35;;;;;;;;;;4983832;28;20195;-80
2022/07/22 11:39:01;;;;;;;7.97;7.05;;;;;;;;;;4963862;28;20180;-80
2022/07/22 11:41:28;;;;;;;8.52;6.82;;;;;;;;;;4980728;28;20175;-80
2022/07/22 11:43:53;;;;;;;7.65;6.88;;;;;;;;;;4994232;28;20184;-80
2022/07/22 11:46:18;;;;;;;7.07;6.47;;;;;;;;;;4975875;28;20179;-80
2022/07/22 11:48:44;;;;;;;7.97;7.15;;;;;;;;;;4972722;28;20449;-80
2022/07/22 11:51:10;;;;;;;7.72;6.93;;;;;;;;;;4971674;28;20180;-80
2022/07/22 11:53:36;;;;;;;7.20;6.63;;;;;;;;;;4991490;28;20235;-80
2022/07/22 11:56:03;;;;;;;7.90;7.10;;;;;;;;;;4951617;28;20209;-81
2022/07/22 11:58:38;;;;;;;8.05;7.25;;;;;;;;;;4976380;28;20214;-80
2022/07/22 12:01:05;;;;;;;7.72;6.95;;;;;;;;;;4952753;28;20181;-80
2022/07/22 12:03:31;;;;;;;13.00;7.00;;;;;;;;;;4973331;28;20267;-81
2022/07/22 12:05:56;;;;;;;6.95;6.10;;;;;;;;;;4965520;28;20275;-80
2022/07/22 12:08:22;;;;;;;6.53;6.03;;;;;;;;;;4953106;28;20180;-81
2022/07/22 12:10:47;;;;;;;6.88;6.30;;;;;;;;;;4975338;28;20191;-80
2022/07/22 12:13:16;;;;;;;6.70;6.20;;;;;;;;;;4973427;28;20185;-81
2022/07/22 12:15:41;;;;;;;7.20;6.60;;;;;;;;;;4954161;28;20244;-81
2022/07/22 12:18:16;;;;;;;7.13;6.43;;;;;;;;;;4954257;28;20256;-78
2022/07/22 12:20:45;;;;;;;7.10;6.50;;;;;;;;;;4952731;28;20176;-80
2022/07/22 12:23:11;;;;;;;6.47;5.88;;;;;;;;;;4953842;28;20184;-81
2022/07/22 12:25:52;;;;;;;7.22;6.10;;;;;;;;;;4949366;28;20205;-79
2022/07/22 12:28:17;;;;;;;7.38;6.75;;;;;;;;;;4967317;28;20188;-80
2022/07/22 12:30:43;;;;;;;7.57;6.97;;;;;;;;;;4947450;28;21440;-80
2022/07/22 12:33:15;;;;;;;6.95;6.25;;;;;;;;;;4951241;28;20180;-81
2022/07/22 12:35:40;;;;;;;6.35;5.85;;;;;;;;;;4973763;28;20314;-81
2022/07/22 12:38:09;;;;;;;6.47;5.97;;;;;;;;;;4946540;28;20181;-80
2022/07/22 12:40:34;;;;;;;6.60;6.03;;;;;;;;;;4958427;28;20181;-80
2022/07/22 12:43:00;;;;;;;6.75;6.15;;;;;;;;;;4975925;28;20181;-81
2022/07/22 12:45:26;;;;;;;6.97;6.47;;;;;;;;;;4970419;28;20199;-81
2022/07/22 12:47:55;;;;;;;6.85;6.35;;;;;;;;;;4964433;28;20299;-81
2022/07/22 12:50:25;;;;;;;6.85;6.25;;;;;;;;;;4954376;28;20185;-81
2022/07/22 12:52:58;;;;;;;7.15;6.45;;;;;;;;;;4959023;28;20191;-81
2022/07/22 12:55:23;;;;;;;6.47;5.88;;;;;;;;;;4955019;28;20354;-81
2022/07/22 12:57:49;;;;;;;6.13;5.57;;;;;;;;;;4955078;28;20185;-81
2022/07/22 13:00:18;;;;;;;7.43;6.72;;;;;;;;;;4959142;28;20184;-81
2022/07/22 13:02:43;;;;;;;6.78;6.18;;;;;;;;;;4957790;28;20223;-81
2022/07/22 13:05:08;;;;;;;7.45;6.28;;;;;;;;;;4949897;28;21745;-81
2022/07/22 13:07:34;;;;;;;5.95;5.45;;;;;;;;;;4970054;28;20184;-81
2022/07/22 13:09:59;;;;;;;6.87;6.27;;;;;;;;;;4955208;28;20192;-81
2022/07/22 13:12:24;;;;;;;6.30;5.70;;;;;;;;;;4966374;28;20434;-81
2022/07/22 13:14:49;;;;;;;6.00;5.60;;;;;;;;;;4974622;28;20207;-81
2022/07/22 13:17:15;;;;;;;6.68;6.10;;;;;;;;;;4961642;28;20425;-81
2022/07/22 13:19:40;;;;;;;6.72;6.13;;;;;;;;;;4958088;28;20189;-81
2022/07/22 13:22:05;;;;;;;6.97;6.38;;;;;;;;;;4953218;28;20307;-81
2022/07/22 13:24:30;;;;;;;6.35;5.85;;;;;;;;;;4960313;28;20183;-81
2022/07/22 13:26:56;;;;;;;6.28;5.78;;;;;;;;;;4959605;28;20180;-80
2022/07/22 13:29:22;;;;;;;6.03;5.63;;;;;;;;;;4956086;28;20181;-81
2022/07/22 13:31:49;;;;;;;7.25;6.60;;;;;;;;;;4954901;28;20185;-81
2022/07/22 13:34:14;;;;;;;10.95;6.28;;;;;;;;;;4956776;28;20406;-81
2022/07/22 13:36:39;;;;;;;6.28;5.55;;;;;;;;;;4959434;28;20264;-81
2022/07/22 13:39:05;;;;;;;6.22;5.72;;;;;;;;;;4973069;28;20272;-81
2022/07/22 13:41:30;;;;;;;6.53;6.03;;;;;;;;;;4952062;28;20208;-81
2022/07/22 13:43:56;;;;;;;6.97;5.55;;;;;;;;;;4964202;28;20195;-81
2022/07/22 13:46:21;;;;;;;6.40;5.88;;;;;;;;;;4973538;28;20233;-81
2022/07/22 13:48:46;;;;;;;6.90;5.90;;;;;;;;;;4971591;28;20185;-81
2022/07/22 13:51:11;;;;;;;6.30;5.68;;;;;;;;;;4964996;28;20217;-81
2022/07/22 13:53:37;;;;;;;6.38;5.78;;;;;;;;;;4954925;28;20232;-81
2022/07/22 13:56:03;;;;;;;6.47;5.82;;;;;;;;;;4956592;28;20209;-81
2022/07/22 13:58:28;;;;;;;7.97;5.65;;;;;;;;;;4956830;28;20184;-81
2022/07/22 14:00:53;;;;;;;5.72;5.32;;;;;;;;;;4955409;28;20173;-81
2022/07/22 14:03:18;;;;;;;6.32;5.80;;;;;;;;;;4961149;28;20510;-81
2022/07/22 14:05:44;;;;;;;5.57;5.07;;;;;;;;;;4972655;28;20235;-81
2022/07/22 14:08:09;;;;;;;5.93;5.45;;;;;;;;;;4953870;28;20200;-81
2022/07/22 14:10:35;;;;;;;6.35;5.72;;;;;;;;;;4977593;28;20177;-81
2022/07/22 14:13:00;;;;;;;6.60;6.10;;;;;;;;;;4953357;28;20173;-81
2022/07/22 14:15:25;;;;;;;7.90;5.82;;;;;;;;;;4959347;28;20270;-81
2022/07/22 14:17:53;;;;;;;6.72;6.13;;;;;;;;;;4957243;28;20177;-81
2022/07/22 14:20:18;;;;;;;5.78;5.35;;;;;;;;;;4956384;28;20185;-82
2022/07/22 14:22:43;;;;;;;6.70;6.10;;;;;;;;;;4975714;28;20184;-79
2022/07/22 14:25:09;;;;;;;6.70;6.20;;;;;;;;;;4951363;28;20204;-80
2022/07/22 14:27:34;;;;;;;6.05;5.50;;;;;;;;;;4970437;28;20177;-80
2022/07/22 14:29:59;;;;;;;6.97;6.22;;;;;;;;;;4957319;28;20184;-80